East Brunswick, NJ - U.S.A.

40° 26' 15"N, 74° 23' 24"W, Elevation 138 ft.

Tuesday, September 30, 2014
3:48:00 PM (Eastern)

273rd day of the year

Updated and refreshed every 2 minutes. Weather computer in use: Davis Vantage PRO2 Plus


Current Weather:

Current Today's Highs and Lows
Temperature 69.4°F (20.8°C) ↓ 76.6° 1:07 PM
61.2° 7:53 AM
Dew Point 61.1°F (16.2°C) ↓ 63.6° 2:49 PM
53.2° 12:04 PM
Humidity 75% 92% 1:30 AM
48% 12:03 PM
Wind Gust ESE 10 mph E 16 2:25 PM
SW 0 12:00 AM
Wind Speed ESE 2 mph ↓
Light air (1)
NNE 7 2:07 PM
SW 0 12:00 AM
Precipitation 0.00" (0.00 mm) 1
Last 24 hours 0.00"
Instantaneous rate 0.00"/hr
Storm total 0.00"
0.00"2 12:00 AM
0.00"2 12:00 AM
Barometer 29.904" (1012.7 mb)
Steady
29.941" 8:57 AM
29.894" 4:57 AM
Wind Chill Gust 69°F (21°C) 77° 1:07 PM
61° 7:53 AM
Wind Chill Avg 69°F (21°C) 77° 1:07 PM
61° 7:53 AM
Heat Index 69°F (20.6°C) 76° 12:18 PM
61° 6:32 AM
Sunshine 251 W/m2
Sunshine minutes 413
974 12:27 PM
0 12:00 AM
UV Index  0.9 4.1 12:26 PM
0.0 12:00 AM
1. Daily total rainfall.
2. Maximum and minimum rainfall are the instantaneous rainfall rates.

'KEBR' METAR REPORT:

METAR KEBR 301948Z AUTO 11002KT 21/16 A2990 RMK AO1 SLP127 T02080162 

Yesterday's Weather and More...

Webcam
EBWeather Image

Video - Last 3 Hours

Video - Yesterday

Video - Last 3 Days

Weather Data from East Brunswick, NJ

Data generated by WxSolution Version 1.8.7, Build 2013.11.03.